Time;durP1;ratioP1;P1;durP2;ratioP2;P2;SDS_P1;SDS_P2;PMS_P1;PMS_P2;Temp;Humidity;BMP_temperature;BMP_pressure;BME280_temperature;BME280_humidity;BME280_pressure;Samples;Min_cycle;Max_cycle;Signal;HPM_P1;HPM_P2
2022/03/11 00:02:29;;;;;;;;;;;;;;;;;;5013502;28;958;-70
2022/03/11 00:04:55;;;;;;;;;;;;;;;;;;5013618;28;889;-69
2022/03/11 00:07:22;;;;;;;;;;;;;;;;;;5013113;28;1154;-70
2022/03/11 00:09:51;;;;;;;;;;;;;;;;;;5013417;28;1292;-68
2022/03/11 00:12:17;;;;;;;;;;;;;;;;;;5012831;28;1918;-68
2022/03/11 00:14:43;;;;;;;;;;;;;;;;;;5013508;28;1118;-68
2022/03/11 00:17:09;;;;;;;;;;;;;;;;;;5013179;28;1099;-69
2022/03/11 00:19:35;;;;;;;;;;;;;;;;;;5013306;28;1409;-68
2022/03/11 00:22:02;;;;;;;;;;;;;;;;;;5018702;28;1492;-68
2022/03/11 00:24:30;;;;;;;;;;;;;;;;;;5033148;28;821;-69
2022/03/11 00:26:56;;;;;;;;;;;;;;;;;;5032295;28;794;-69
2022/03/11 00:29:23;;;;;;;;;;;;;;;;;;5033007;28;1343;-68
2022/03/11 00:31:49;;;;;;;;;;;;;;;;;;5032278;28;1912;-70
2022/03/11 00:34:15;;;;;;;;;;;;;;;;;;5032183;28;1020;-69
2022/03/11 00:36:43;;;;;;;;;;;;;;;;;;5032431;28;971;-68
2022/03/11 00:39:09;;;;;;;;;;;;;;;;;;5033002;28;964;-68
2022/03/11 00:41:37;;;;;;;;;;;;;;;;;;5032950;28;1368;-68
2022/03/11 00:44:03;;;;;;;;;;;;;;;;;;5032342;28;1004;-68
2022/03/11 00:46:29;;;;;;;;;;;;;;;;;;5032297;28;1131;-68
2022/03/11 00:48:55;;;;;;;;;;;;;;;;;;5032649;28;1098;-68
2022/03/11 00:51:21;;;;;;;;;;;;;;;;;;5032664;28;1961;-68
2022/03/11 00:53:47;;;;;;;;;;;;;;;;;;5032496;28;1053;-68
2022/03/11 00:56:14;;;;;;;;;;;;;;;;;;5031473;28;1154;-69
2022/03/11 00:58:41;;;;;;;;;;;;;;;;;;5030192;28;2125;-69
2022/03/11 01:01:07;;;;;;;;;;;;;;;;;;5017486;28;1778;-69
2022/03/11 01:03:34;;;;;;;;;;;;;;;;;;5021022;28;1095;-69
2022/03/11 01:06:00;;;;;;;;;;;;;;;;;;5019982;28;1329;-69
2022/03/11 01:08:26;;;;;;;;;;;;;;;;;;5012218;28;1115;-69
2022/03/11 01:10:52;;;;;;;;;;;;;;;;;;5012302;28;1313;-68
2022/03/11 01:13:18;;;;;;;;;;;;;;;;;;5012523;28;1975;-69
2022/03/11 01:15:46;;;;;;;;;;;;;;;;;;5012414;28;775;-68
2022/03/11 01:18:12;;;;;;;;;;;;;;;;;;5012047;28;944;-70
2022/03/11 01:20:38;;;;;;;;;;;;;;;;;;5012267;28;1384;-69
2022/03/11 01:23:04;;;;;;;;;;;;;;;;;;5012411;28;797;-69
2022/03/11 01:25:30;;;;;;;;;;;;;;;;;;5012187;28;972;-70
2022/03/11 01:27:57;;;;;;;;;;;;;;;;;;5011976;28;1079;-70
2022/03/11 01:30:23;;;;;;;;;;;;;;;;;;5011977;28;1319;-70
2022/03/11 01:32:50;;;;;;;;;;;;;;;;;;5012143;28;1895;-69
2022/03/11 01:35:16;;;;;;;;;;;;;;;;;;5012063;28;1134;-68
2022/03/11 01:37:44;;;;;;;;;;;;;;;;;;5011768;28;766;-69
2022/03/11 01:40:10;;;;;;;;;;;;;;;;;;5011855;28;1365;-68
2022/03/11 01:42:37;;;;;;;;;;;;;;;;;;5012292;28;899;-68
2022/03/11 01:45:03;;;;;;;;;;;;;;;;;;5011735;28;842;-68
2022/03/11 01:47:29;;;;;;;;;;;;;;;;;;5011471;28;1268;-69
2022/03/11 01:49:57;;;;;;;;;;;;;;;;;;5011678;28;1345;-67
2022/03/11 01:52:23;;;;;;;;;;;;;;;;;;5011762;28;1978;-68
2022/03/11 01:54:50;;;;;;;;;;;;;;;;;;5011548;28;803;-68
2022/03/11 01:57:16;;;;;;;;;;;;;;;;;;5011476;28;960;-68
2022/03/11 01:59:43;;;;;;;;;;;;;;;;;;5011613;28;1332;-69
2022/03/11 02:02:10;;;;;;;;;;;;;;;;;;5011576;28;1154;-68
2022/03/11 02:04:36;;;;;;;;;;;;;;;;;;5011504;28;830;-68
2022/03/11 02:07:04;;;;;;;;;;;;;;;;;;5011359;28;924;-69
2022/03/11 02:09:30;;;;;;;;;;;;;;;;;;5011444;28;1345;-69
2022/03/11 02:11:57;;;;;;;;;;;;;;;;;;5011677;28;1977;-68
2022/03/11 02:14:23;;;;;;;;;;;;;;;;;;5011471;28;1083;-68
2022/03/11 02:16:49;;;;;;;;;;;;;;;;;;4993403;28;1732;-68
2022/03/11 02:19:15;;;;;;;;;;;;;;;;;;5011359;28;869;-68
2022/03/11 02:21:42;;;;;;;;;;;;;;;;;;4993618;28;1322;-68
2022/03/11 02:24:10;;;;;;;;;;;;;;;;;;5011036;28;1106;-69
2022/03/11 02:26:37;;;;;;;;;;;;;;;;;;4993231;28;2645;-69
2022/03/11 02:29:03;;;;;;;;;;;;;;;;;;4993673;28;1130;-70
2022/03/11 02:31:30;;;;;;;;;;;;;;;;;;5011075;28;1329;-69
2022/03/11 02:33:57;;;;;;;;;;;;;;;;;;5011038;28;1914;-69
2022/03/11 02:36:23;;;;;;;;;;;;;;;;;;5010874;28;1082;-69
2022/03/11 02:38:49;;;;;;;;;;;;;;;;;;5011443;28;1123;-68
2022/03/11 02:41:17;;;;;;;;;;;;;;;;;;5011034;28;1318;-68
2022/03/11 02:43:43;;;;;;;;;;;;;;;;;;5011151;28;1075;-68
2022/03/11 02:46:09;;;;;;;;;;;;;;;;;;5010663;28;882;-67
2022/03/11 02:48:35;;;;;;;;;;;;;;;;;;5010953;28;1091;-69
2022/03/11 02:51:02;;;;;;;;;;;;;;;;;;5011059;28;1276;-68
2022/03/11 02:53:28;;;;;;;;;;;;;;;;;;5010806;28;1918;-68
2022/03/11 02:55:54;;;;;;;;;;;;;;;;;;5010090;28;834;-68
2022/03/11 02:58:21;;;;;;;;;;;;;;;;;;5010759;28;984;-69
2022/03/11 03:00:48;;;;;;;;;;;;;;;;;;5010368;28;1543;-69
2022/03/11 03:03:14;;;;;;;;;;;;;;;;;;5010990;28;790;-68
2022/03/11 03:05:40;;;;;;;;;;;;;;;;;;5010658;28;1019;-69
2022/03/11 03:08:06;;;;;;;;;;;;;;;;;;5010653;28;837;-69
2022/03/11 03:10:32;;;;;;;;;;;;;;;;;;5010466;28;1336;-69
2022/03/11 03:12:59;;;;;;;;;;;;;;;;;;5010584;28;1927;-68
2022/03/11 03:15:27;;;;;;;;;;;;;;;;;;5010448;28;846;-70
2022/03/11 03:17:53;;;;;;;;;;;;;;;;;;4992821;28;1651;-68
2022/03/11 03:20:20;;;;;;;;;;;;;;;;;;5010551;28;1318;-68
2022/03/11 03:22:46;;;;;;;;;;;;;;;;;;5010378;28;869;-68
2022/03/11 03:25:12;;;;;;;;;;;;;;;;;;5010636;28;1087;-67
2022/03/11 03:27:38;;;;;;;;;;;;;;;;;;5010301;28;1071;-68
2022/03/11 03:30:05;;;;;;;;;;;;;;;;;;5010595;28;1421;-68
2022/03/11 03:32:32;;;;;;;;;;;;;;;;;;5010436;28;1911;-68
2022/03/11 03:34:59;;;;;;;;;;;;;;;;;;5010436;28;1043;-68
2022/03/11 03:37:25;;;;;;;;;;;;;;;;;;5010191;28;1235;-68
2022/03/11 03:39:51;;;;;;;;;;;;;;;;;;5010256;28;1328;-68
2022/03/11 03:42:17;;;;;;;;;;;;;;;;;;5010588;28;1135;-68
2022/03/11 03:44:43;;;;;;;;;;;;;;;;;;5010366;28;1091;-68
2022/03/11 03:47:09;;;;;;;;;;;;;;;;;;5010116;28;810;-68
2022/03/11 03:49:37;;;;;;;;;;;;;;;;;;5010165;28;1322;-68
2022/03/11 03:52:06;;;;;;;;;;;;;;;;;;5010403;28;1079;-69
2022/03/11 03:54:32;;;;;;;;;;;;;;;;;;5010257;28;1147;-68
2022/03/11 03:56:58;;;;;;;;;;;;;;;;;;5010122;28;1133;-68
2022/03/11 03:59:24;;;;;;;;;;;;;;;;;;4992468;28;1351;-67
2022/03/11 04:01:51;;;;;;;;;;;;;;;;;;5010324;28;850;-68
2022/03/11 04:04:18;;;;;;;;;;;;;;;;;;5010276;28;838;-70
2022/03/11 04:06:45;;;;;;;;;;;;;;;;;;5010268;28;1138;-70
2022/03/11 04:09:12;;;;;;;;;;;;;;;;;;5013618;28;976;-68
2022/03/11 04:11:38;;;;;;;;;;;;;;;;;;5013638;28;1310;-69
2022/03/11 04:14:05;;;;;;;;;;;;;;;;;;5013599;28;1985;-68
2022/03/11 04:16:32;;;;;;;;;;;;;;;;;;5013321;28;872;-69
2022/03/11 04:18:59;;;;;;;;;;;;;;;;;;5013669;28;908;-69
2022/03/11 04:21:25;;;;;;;;;;;;;;;;;;5013438;28;1395;-68
2022/03/11 04:23:52;;;;;;;;;;;;;;;;;;5013475;28;944;-69
2022/03/11 04:26:19;;;;;;;;;;;;;;;;;;5013142;28;1121;-67
2022/03/11 04:28:45;;;;;;;;;;;;;;;;;;5013313;28;1079;-67
2022/03/11 04:31:12;;;;;;;;;;;;;;;;;;5014575;28;1270;-68
2022/03/11 04:33:39;;;;;;;;;;;;;;;;;;5013004;28;1906;-69
2022/03/11 04:36:06;;;;;;;;;;;;;;;;;;5013111;28;1078;-67
2022/03/11 04:38:32;;;;;;;;;;;;;;;;;;5013125;28;1336;-67
2022/03/11 04:41:00;;;;;;;;;;;;;;;;;;5013014;28;1328;-69
2022/03/11 04:43:26;;;;;;;;;;;;;;;;;;5012618;28;1536;-68
2022/03/11 04:45:53;;;;;;;;;;;;;;;;;;5013226;28;1456;-68
2022/03/11 04:48:19;;;;;;;;;;;;;;;;;;5012847;28;1123;-68
2022/03/11 04:50:45;;;;;;;;;;;;;;;;;;5012566;28;1382;-68
2022/03/11 04:53:12;;;;;;;;;;;;;;;;;;4994969;28;1922;-67
2022/03/11 04:55:38;;;;;;;;;;;;;;;;;;5011508;28;2144;-67
2022/03/11 04:58:05;;;;;;;;;;;;;;;;;;5012492;28;1611;-69
2022/03/11 05:00:31;;;;;;;;;;;;;;;;;;5012479;28;1599;-70
2022/03/11 05:02:58;;;;;;;;;;;;;;;;;;5012369;28;1647;-70
2022/03/11 05:05:25;;;;;;;;;;;;;;;;;;5012567;28;1635;-66
2022/03/11 05:07:51;;;;;;;;;;;;;;;;;;5012538;28;1140;-68
2022/03/11 05:10:18;;;;;;;;;;;;;;;;;;5012322;28;1564;-69
2022/03/11 05:12:44;;;;;;;;;;;;;;;;;;5012269;28;1914;-69
2022/03/11 05:15:12;;;;;;;;;;;;;;;;;;5012395;28;1699;-68
2022/03/11 05:17:38;;;;;;;;;;;;;;;;;;5011513;28;1596;-67
2022/03/11 05:20:05;;;;;;;;;;;;;;;;;;5011144;28;1572;-69
2022/03/11 05:22:31;;;;;;;;;;;;;;;;;;5012321;28;1142;-69
2022/03/11 05:24:57;;;;;;;;;;;;;;;;;;5012169;28;1536;-70
2022/03/11 05:27:24;;;;;;;;;;;;;;;;;;5010862;28;1611;-69
2022/03/11 05:29:50;;;;;;;;;;;;;;;;;;5006229;28;1993;-69
2022/03/11 05:32:20;;;;;;;;;;;;;;;;;;5021464;28;1492;-68
2022/03/11 05:34:46;;;;;;;;;;;;;;;;;;5012360;28;1933;-65
2022/03/11 05:37:12;;;;;;;;;;;;;;;;;;5011337;28;1658;-68
2022/03/11 05:39:39;;;;;;;;;;;;;;;;;;5011760;28;1471;-68
2022/03/11 05:42:05;;;;;;;;;;;;;;;;;;5012102;28;1095;-68
2022/03/11 05:44:32;;;;;;;;;;;;;;;;;;4993809;28;1132;-67
2022/03/11 05:46:58;;;;;;;;;;;;;;;;;;5011010;28;1252;-68
2022/03/11 05:49:26;;;;;;;;;;;;;;;;;;5011405;28;1420;-67
2022/03/11 05:51:52;;;;;;;;;;;;;;;;;;5009239;28;1419;-68
2022/03/11 05:54:19;;;;;;;;;;;;;;;;;;5013961;28;2069;-68
2022/03/11 05:56:50;;;;;;;;;;;;;;;;;;5013195;28;1279;-68
2022/03/11 05:59:16;;;;;;;;;;;;;;;;;;5011948;28;924;-68
2022/03/11 06:01:43;;;;;;;;;;;;;;;;;;5011463;28;1405;-68
2022/03/11 06:04:09;;;;;;;;;;;;;;;;;;5011561;28;1063;-68
2022/03/11 06:06:37;;;;;;;;;;;;;;;;;;5011342;28;813;-68
2022/03/11 06:09:03;;;;;;;;;;;;;;;;;;5011453;28;940;-68
2022/03/11 06:11:29;;;;;;;;;;;;;;;;;;5011447;28;1421;-68
2022/03/11 06:13:56;;;;;;;;;;;;;;;;;;5011585;28;1914;-68
2022/03/11 06:16:22;;;;;;;;;;;;;;;;;;5011247;28;968;-68
2022/03/11 06:18:48;;;;;;;;;;;;;;;;;;5011388;28;999;-68
2022/03/11 06:21:14;;;;;;;;;;;;;;;;;;5011331;28;1362;-68
2022/03/11 06:23:42;;;;;;;;;;;;;;;;;;5011153;28;845;-68
2022/03/11 06:26:08;;;;;;;;;;;;;;;;;;5010817;28;1074;-68
2022/03/11 06:28:34;;;;;;;;;;;;;;;;;;5011161;28;743;-68
2022/03/11 06:31:00;;;;;;;;;;;;;;;;;;5010177;28;1437;-68
2022/03/11 06:33:26;;;;;;;;;;;;;;;;;;5011099;28;1919;-69
2022/03/11 06:35:53;;;;;;;;;;;;;;;;;;5010999;28;1083;-69
2022/03/11 06:38:19;;;;;;;;;;;;;;;;;;5011235;28;771;-68
2022/03/11 06:40:51;;;;;;;;;;;;;;;;;;5011105;28;1467;-68
2022/03/11 06:43:17;;;;;;;;;;;;;;;;;;5011135;28;802;-68
2022/03/11 06:45:43;;;;;;;;;;;;;;;;;;5010979;28;1031;-68
2022/03/11 06:48:14;;;;;;;;;;;;;;;;;;5010644;28;829;-69
2022/03/11 06:50:40;;;;;;;;;;;;;;;;;;5011006;28;1322;-69
2022/03/11 06:53:07;;;;;;;;;;;;;;;;;;5010820;28;1916;-68
2022/03/11 06:55:33;;;;;;;;;;;;;;;;;;5010930;28;865;-69
2022/03/11 06:58:00;;;;;;;;;;;;;;;;;;5010791;28;1122;-69
2022/03/11 07:00:27;;;;;;;;;;;;;;;;;;5010717;28;1418;-69
2022/03/11 07:02:53;;;;;;;;;;;;;;;;;;5009942;28;1246;-69
2022/03/11 07:05:20;;;;;;;;;;;;;;;;;;5010285;28;1400;-70
2022/03/11 07:07:46;;;;;;;;;;;;;;;;;;5009964;28;1287;-69
2022/03/11 07:10:16;;;;;;;;;;;;;;;;;;5007854;28;1507;-69
2022/03/11 07:12:42;;;;;;;;;;;;;;;;;;5010237;28;1236;-69
2022/03/11 07:15:10;;;;;;;;;;;;;;;;;;5010506;28;1918;-69
2022/03/11 07:17:36;;;;;;;;;;;;;;;;;;5007662;28;1268;-69
2022/03/11 07:20:04;;;;;;;;;;;;;;;;;;5010402;28;1349;-69
2022/03/11 07:22:31;;;;;;;;;;;;;;;;;;5010712;28;1142;-69
2022/03/11 07:24:58;;;;;;;;;;;;;;;;;;5010665;28;1139;-69
2022/03/11 07:27:24;;;;;;;;;;;;;;;;;;5010477;28;1114;-69
2022/03/11 07:29:51;;;;;;;;;;;;;;;;;;5010481;28;1454;-69
2022/03/11 07:32:18;;;;;;;;;;;;;;;;;;5010185;28;2081;-69
2022/03/11 07:34:44;;;;;;;;;;;;;;;;;;5010349;28;1902;-69
2022/03/11 07:37:12;;;;;;;;;;;;;;;;;;5010607;28;1139;-69
2022/03/11 07:39:38;;;;;;;;;;;;;;;;;;5010395;28;1399;-70
2022/03/11 07:42:04;;;;;;;;;;;;;;;;;;5011561;28;1087;-69
2022/03/11 07:44:34;;;;;;;;;;;;;;;;;;5014237;28;837;-70
2022/03/11 07:47:00;;;;;;;;;;;;;;;;;;5013945;28;1015;-69
2022/03/11 07:49:28;;;;;;;;;;;;;;;;;;5014226;28;1437;-68
2022/03/11 07:51:54;;;;;;;;;;;;;;;;;;5014118;28;1083;-70
2022/03/11 07:54:21;;;;;;;;;;;;;;;;;;5014151;28;1914;-69
2022/03/11 07:56:47;;;;;;;;;;;;;;;;;;5011912;28;1102;-69
2022/03/11 07:59:13;;;;;;;;;;;;;;;;;;5012919;28;1076;-69
2022/03/11 08:01:39;;;;;;;;;;;;;;;;;;5013892;28;1297;-69
2022/03/11 08:04:06;;;;;;;;;;;;;;;;;;5014237;28;744;-69
2022/03/11 08:06:33;;;;;;;;;;;;;;;;;;5014042;28;1031;-69
2022/03/11 08:08:59;;;;;;;;;;;;;;;;;;5014301;28;984;-67
2022/03/11 08:11:25;;;;;;;;;;;;;;;;;;5013904;28;1405;-70
2022/03/11 08:13:52;;;;;;;;;;;;;;;;;;5013746;28;1914;-70
2022/03/11 08:16:18;;;;;;;;;;;;;;;;;;5013246;28;1094;-70
2022/03/11 08:18:45;;;;;;;;;;;;;;;;;;5013691;28;1083;-69
2022/03/11 08:21:16;;;;;;;;;;;;;;;;;;5013786;28;1385;-69
2022/03/11 08:23:44;;;;;;;;;;;;;;;;;;5013990;28;877;-70
2022/03/11 08:26:11;;;;;;;;;;;;;;;;;;5013573;28;1083;-70
2022/03/11 08:28:38;;;;;;;;;;;;;;;;;;5014072;28;838;-70
2022/03/11 08:31:04;;;;;;;;;;;;;;;;;;4995720;28;1402;-70
2022/03/11 08:33:30;;;;;;;;;;;;;;;;;;5013416;28;1075;-70
2022/03/11 08:35:57;;;;;;;;;;;;;;;;;;5013138;28;1989;-70
2022/03/11 08:38:24;;;;;;;;;;;;;;;;;;5013013;28;1119;-70
2022/03/11 08:40:51;;;;;;;;;;;;;;;;;;5013045;28;1345;-70
2022/03/11 08:43:19;;;;;;;;;;;;;;;;;;5013145;28;1063;-70
2022/03/11 08:45:45;;;;;;;;;;;;;;;;;;5012990;28;1091;-69
2022/03/11 08:48:11;;;;;;;;;;;;;;;;;;5013170;28;807;-69
2022/03/11 08:50:37;;;;;;;;;;;;;;;;;;5012808;28;1334;-70
2022/03/11 08:53:03;;;;;;;;;;;;;;;;;;5012466;28;870;-70
2022/03/11 08:55:30;;;;;;;;;;;;;;;;;;5012663;28;1910;-68
2022/03/11 08:57:57;;;;;;;;;;;;;;;;;;5012622;28;1090;-69
2022/03/11 09:00:25;;;;;;;;;;;;;;;;;;5012229;28;1528;-68
2022/03/11 09:02:51;;;;;;;;;;;;;;;;;;5012661;28;1091;-68
2022/03/11 09:05:18;;;;;;;;;;;;;;;;;;5012853;28;956;-68
2022/03/11 09:07:44;;;;;;;;;;;;;;;;;;5012322;28;1075;-68
2022/03/11 09:10:11;;;;;;;;;;;;;;;;;;5012725;28;1318;-68
2022/03/11 09:12:37;;;;;;;;;;;;;;;;;;5012567;28;1032;-68
2022/03/11 09:15:05;;;;;;;;;;;;;;;;;;5012561;28;1918;-68
2022/03/11 09:17:32;;;;;;;;;;;;;;;;;;5012103;28;1079;-68
2022/03/11 09:20:02;;;;;;;;;;;;;;;;;;5012398;28;1316;-69
2022/03/11 09:22:28;;;;;;;;;;;;;;;;;;5012298;28;1083;-68
2022/03/11 09:24:55;;;;;;;;;;;;;;;;;;4994759;28;833;-68
2022/03/11 09:27:23;;;;;;;;;;;;;;;;;;5012098;28;1070;-68
2022/03/11 09:29:49;;;;;;;;;;;;;;;;;;5012027;28;1380;-69
2022/03/11 09:32:17;;;;;;;;;;;;;;;;;;5012392;28;964;-68
2022/03/11 09:34:43;;;;;;;;;;;;;;;;;;5012144;28;1915;-68
2022/03/11 09:37:10;;;;;;;;;;;;;;;;;;5011524;28;1087;-69
2022/03/11 09:39:37;;;;;;;;;;;;;;;;;;5011922;28;1373;-69
2022/03/11 09:42:04;;;;;;;;;;;;;;;;;;5012193;28;1087;-69
2022/03/11 09:44:30;;;;;;;;;;;;;;;;;;5012088;28;1063;-68
2022/03/11 09:46:56;;;;;;;;;;;;;;;;;;5012406;28;834;-67
2022/03/11 09:49:23;;;;;;;;;;;;;;;;;;5029868;28;1083;-69
2022/03/11 09:51:50;;;;;;;;;;;;;;;;;;5031433;28;1417;-69
2022/03/11 09:54:16;;;;;;;;;;;;;;;;;;5031534;28;1906;-68
2022/03/11 09:56:42;;;;;;;;;;;;;;;;;;5031448;28;972;-69
2022/03/11 09:59:09;;;;;;;;;;;;;;;;;;5031460;28;1074;-68
2022/03/11 10:01:35;;;;;;;;;;;;;;;;;;5031290;28;1340;-69
2022/03/11 10:04:03;;;;;;;;;;;;;;;;;;5031513;28;899;-68
2022/03/11 10:06:38;;;;;;;;;;;;;;;;;;5030764;28;833;-68
2022/03/11 10:09:04;;;;;;;;;;;;;;;;;;5031446;28;1074;-69
2022/03/11 10:11:30;;;;;;;;;;;;;;;;;;5030984;28;1302;-69
2022/03/11 10:14:06;;;;;;;;;;;;;;;;;;5031232;28;1102;-70
2022/03/11 10:16:32;;;;;;;;;;;;;;;;;;5031071;28;1141;-69
2022/03/11 10:18:59;;;;;;;;;;;;;;;;;;5031309;28;1058;-68
2022/03/11 10:21:31;;;;;;;;;;;;;;;;;;5031324;28;1287;-68
2022/03/11 10:23:59;;;;;;;;;;;;;;;;;;5031342;28;738;-69
2022/03/11 10:26:35;;;;;;;;;;;;;;;;;;5030753;28;916;-67
2022/03/11 10:29:02;;;;;;;;;;;;;;;;;;5030997;28;932;-69
2022/03/11 10:31:29;;;;;;;;;;;;;;;;;;5030823;28;1466;-68
2022/03/11 10:34:09;;;;;;;;;;;;;;;;;;5030858;28;1099;-68
2022/03/11 10:36:35;;;;;;;;;;;;;;;;;;5030334;28;2219;-69
2022/03/11 10:39:13;;;;;;;;;;;;;;;;;;5030998;28;708;-68
2022/03/11 10:41:39;;;;;;;;;;;;;;;;;;5030707;28;1389;-68
2022/03/11 10:44:09;;;;;;;;;;;;;;;;;;5030777;28;1086;-68
2022/03/11 10:46:35;;;;;;;;;;;;;;;;;;5030265;28;1082;-68
2022/03/11 10:49:03;;;;;;;;;;;;;;;;;;5030747;28;782;-69
2022/03/11 10:51:30;;;;;;;;;;;;;;;;;;5030266;28;1357;-69
2022/03/11 10:53:56;;;;;;;;;;;;;;;;;;5030736;28;727;-69
2022/03/11 10:56:29;;;;;;;;;;;;;;;;;;5030248;28;2048;-69
2022/03/11 10:58:55;;;;;;;;;;;;;;;;;;5030688;28;818;-69
2022/03/11 11:01:33;;;;;;;;;;;;;;;;;;5017003;28;1631;-69
2022/03/11 11:04:00;;;;;;;;;;;;;;;;;;4993276;28;921;-69
2022/03/11 11:06:26;;;;;;;;;;;;;;;;;;5011032;28;948;-70
2022/03/11 11:08:52;;;;;;;;;;;;;;;;;;5010971;28;798;-69
2022/03/11 11:11:19;;;;;;;;;;;;;;;;;;5010686;28;1350;-69
2022/03/11 11:13:46;;;;;;;;;;;;;;;;;;5010551;28;1086;-69
2022/03/11 11:16:12;;;;;;;;;;;;;;;;;;5010827;28;1914;-69
2022/03/11 11:18:39;;;;;;;;;;;;;;;;;;5014202;28;866;-69
2022/03/11 11:21:05;;;;;;;;;;;;;;;;;;5014630;28;1432;-70
2022/03/11 11:23:32;;;;;;;;;;;;;;;;;;5014508;28;1218;-69
2022/03/11 11:25:58;;;;;;;;;;;;;;;;;;5014644;28;1122;-70
2022/03/11 11:28:26;;;;;;;;;;;;;;;;;;5011759;28;2074;-68
2022/03/11 11:30:54;;;;;;;;;;;;;;;;;;5009377;28;1958;-69
2022/03/11 11:33:20;;;;;;;;;;;;;;;;;;5015474;28;1223;-76
2022/03/11 11:35:46;;;;;;;;;;;;;;;;;;5014368;28;1971;-76
2022/03/11 11:38:29;;;;;;;;;;;;;;;;;;5033886;28;1075;-76
2022/03/11 11:40:55;;;;;;;;;;;;;;;;;;5034386;28;1340;-75
2022/03/11 11:43:30;;;;;;;;;;;;;;;;;;5016563;28;1271;-76
2022/03/11 11:46:10;;;;;;;;;;;;;;;;;;5034467;28;912;-75
2022/03/11 11:48:58;;;;;;;;;;;;;;;;;;5016709;28;1047;-76
2022/03/11 11:51:45;;;;;;;;;;;;;;;;;;5034292;28;1411;-75
2022/03/11 11:54:12;;;;;;;;;;;;;;;;;;5016310;28;1244;-75
2022/03/11 11:56:41;;;;;;;;;;;;;;;;;;5033993;28;1919;-75
2022/03/11 11:59:08;;;;;;;;;;;;;;;;;;5017062;28;1468;-76
2022/03/11 12:01:40;;;;;;;;;;;;;;;;;;5006956;28;1675;-76
2022/03/11 12:04:21;;;;;;;;;;;;;;;;;;5013812;28;1579;-75
2022/03/11 12:06:54;;;;;;;;;;;;;;;;;;4995562;28;1575;-74
2022/03/11 12:09:35;;;;;;;;;;;;;;;;;;5013875;28;1099;-74
2022/03/11 12:12:03;;;;;;;;;;;;;;;;;;4995228;28;1583;-75
2022/03/11 12:14:29;;;;;;;;;;;;;;;;;;5013732;28;1797;-74
2022/03/11 12:17:06;;;;;;;;;;;;;;;;;;5013103;28;1981;-75
2022/03/11 12:19:38;;;;;;;;;;;;;;;;;;4994712;28;1318;-75
2022/03/11 12:22:19;;;;;;;;;;;;;;;;;;5007524;28;1580;-75
2022/03/11 12:24:46;;;;;;;;;;;;;;;;;;5013971;28;1321;-76
2022/03/11 12:27:13;;;;;;;;;;;;;;;;;;5012624;28;1647;-76
2022/03/11 12:29:42;;;;;;;;;;;;;;;;;;5013658;28;1503;-76
2022/03/11 12:32:08;;;;;;;;;;;;;;;;;;5013098;28;1616;-74
2022/03/11 12:34:35;;;;;;;;;;;;;;;;;;4995854;28;1587;-76
2022/03/11 12:37:01;;;;;;;;;;;;;;;;;;4995649;28;1914;-75
2022/03/11 12:39:32;;;;;;;;;;;;;;;;;;5010646;28;1418;-75
2022/03/11 12:42:00;;;;;;;;;;;;;;;;;;5011546;28;1616;-75
2022/03/11 12:44:28;;;;;;;;;;;;;;;;;;4993299;28;1622;-75
2022/03/11 12:46:54;;;;;;;;;;;;;;;;;;4993609;28;1662;-75
2022/03/11 12:49:25;;;;;;;;;;;;;;;;;;5013069;28;1559;-75
2022/03/11 12:51:51;;;;;;;;;;;;;;;;;;4995789;28;1492;-75
2022/03/11 12:54:20;;;;;;;;;;;;;;;;;;5012622;28;1612;-75
2022/03/11 12:56:46;;;;;;;;;;;;;;;;;;5012708;28;1919;-76
2022/03/11 12:59:12;;;;;;;;;;;;;;;;;;5012735;28;1370;-76
2022/03/11 13:01:43;;;;;;;;;;;;;;;;;;5013065;28;1313;-77
2022/03/11 13:04:10;;;;;;;;;;;;;;;;;;5011467;28;1095;-76
2022/03/11 13:06:36;;;;;;;;;;;;;;;;;;5012130;28;2254;-77
2022/03/11 13:09:02;;;;;;;;;;;;;;;;;;5013160;28;1091;-76
2022/03/11 13:11:28;;;;;;;;;;;;;;;;;;5012822;28;1337;-76
2022/03/11 13:13:55;;;;;;;;;;;;;;;;;;5012867;28;989;-77
2022/03/11 13:16:22;;;;;;;;;;;;;;;;;;4994468;28;1927;-76
2022/03/11 13:18:51;;;;;;;;;;;;;;;;;;4995150;28;1196;-76
2022/03/11 13:21:19;;;;;;;;;;;;;;;;;;5012774;28;1283;-76
2022/03/11 13:23:45;;;;;;;;;;;;;;;;;;4995184;28;1167;-76
2022/03/11 13:26:17;;;;;;;;;;;;;;;;;;5012495;28;1048;-76
2022/03/11 13:28:45;;;;;;;;;;;;;;;;;;5013140;28;1083;-76
2022/03/11 13:31:12;;;;;;;;;;;;;;;;;;5012379;28;1352;-77
2022/03/11 13:33:39;;;;;;;;;;;;;;;;;;5012588;28;876;-76
2022/03/11 13:36:08;;;;;;;;;;;;;;;;;;4994718;28;1918;-75
2022/03/11 13:38:35;;;;;;;;;;;;;;;;;;5012633;28;1075;-77
2022/03/11 13:41:01;;;;;;;;;;;;;;;;;;5011911;28;1394;-76
2022/03/11 13:43:28;;;;;;;;;;;;;;;;;;5012452;28;1066;-76
2022/03/11 13:45:54;;;;;;;;;;;;;;;;;;4994632;28;1208;-76
2022/03/11 13:48:26;;;;;;;;;;;;;;;;;;5012057;28;794;-77
2022/03/11 13:50:58;;;;;;;;;;;;;;;;;;4994415;28;1322;-77
2022/03/11 13:53:29;;;;;;;;;;;;;;;;;;5011974;28;1075;-76
2022/03/11 13:55:59;;;;;;;;;;;;;;;;;;4994908;28;1918;-77
2022/03/11 13:58:26;;;;;;;;;;;;;;;;;;5011789;28;881;-76
2022/03/11 14:00:52;;;;;;;;;;;;;;;;;;5011933;28;1400;-77
2022/03/11 14:03:20;;;;;;;;;;;;;;;;;;5011987;28;1141;-76
2022/03/11 14:05:46;;;;;;;;;;;;;;;;;;5011851;28;1016;-77
2022/03/11 14:08:14;;;;;;;;;;;;;;;;;;5011602;28;1055;-76
2022/03/11 14:10:43;;;;;;;;;;;;;;;;;;5011980;28;1378;-77
2022/03/11 14:13:10;;;;;;;;;;;;;;;;;;4994198;28;893;-77
2022/03/11 14:15:36;;;;;;;;;;;;;;;;;;5012047;28;1907;-77
2022/03/11 14:18:03;;;;;;;;;;;;;;;;;;5011409;28;1129;-76
2022/03/11 14:20:30;;;;;;;;;;;;;;;;;;5011535;28;1328;-76
2022/03/11 14:22:56;;;;;;;;;;;;;;;;;;5011447;28;825;-77
2022/03/11 14:25:22;;;;;;;;;;;;;;;;;;5011751;28;1095;-77
2022/03/11 14:27:50;;;;;;;;;;;;;;;;;;5011734;28;1079;-77
2022/03/11 14:30:16;;;;;;;;;;;;;;;;;;5011317;28;1429;-76
2022/03/11 14:32:43;;;;;;;;;;;;;;;;;;5011459;28;957;-76
2022/03/11 14:35:09;;;;;;;;;;;;;;;;;;4993723;28;1281;-76
2022/03/11 14:37:36;;;;;;;;;;;;;;;;;;4993433;28;1986;-77
2022/03/11 14:40:02;;;;;;;;;;;;;;;;;;5011317;28;1305;-76
2022/03/11 14:42:29;;;;;;;;;;;;;;;;;;5011710;28;953;-77
2022/03/11 14:44:56;;;;;;;;;;;;;;;;;;5009991;28;1561;-77
2022/03/11 14:47:22;;;;;;;;;;;;;;;;;;5010800;28;876;-77
2022/03/11 14:49:49;;;;;;;;;;;;;;;;;;5011397;28;1389;-77
2022/03/11 14:52:15;;;;;;;;;;;;;;;;;;5010273;28;1095;-77
2022/03/11 14:54:42;;;;;;;;;;;;;;;;;;5011411;28;806;-77
2022/03/11 14:57:08;;;;;;;;;;;;;;;;;;4993414;28;1914;-77
2022/03/11 14:59:34;;;;;;;;;;;;;;;;;;5011086;28;1333;-77
2022/03/11 15:02:02;;;;;;;;;;;;;;;;;;5011136;28;1080;-77
2022/03/11 15:04:29;;;;;;;;;;;;;;;;;;5010915;28;864;-77
2022/03/11 15:06:55;;;;;;;;;;;;;;;;;;5010782;28;1127;-77
2022/03/11 15:09:22;;;;;;;;;;;;;;;;;;5011159;28;858;-77
2022/03/11 15:11:48;;;;;;;;;;;;;;;;;;5011166;28;1315;-77
2022/03/11 15:14:16;;;;;;;;;;;;;;;;;;5010495;28;1484;-77
2022/03/11 15:16:43;;;;;;;;;;;;;;;;;;5010613;28;1914;-77
2022/03/11 15:19:11;;;;;;;;;;;;;;;;;;5010926;28;1091;-77
2022/03/11 15:21:39;;;;;;;;;;;;;;;;;;5010758;28;1298;-76
2022/03/11 15:24:07;;;;;;;;;;;;;;;;;;5011162;28;1020;-77
2022/03/11 15:26:33;;;;;;;;;;;;;;;;;;5011053;28;976;-77
2022/03/11 15:29:01;;;;;;;;;;;;;;;;;;5011224;28;806;-77
2022/03/11 15:31:29;;;;;;;;;;;;;;;;;;5011281;28;1372;-77
2022/03/11 15:33:55;;;;;;;;;;;;;;;;;;5011330;28;1070;-76
2022/03/11 15:36:23;;;;;;;;;;;;;;;;;;5010838;28;1910;-76
2022/03/11 15:38:50;;;;;;;;;;;;;;;;;;5011249;28;933;-77
2022/03/11 15:41:16;;;;;;;;;;;;;;;;;;5010888;28;1297;-76
2022/03/11 15:43:43;;;;;;;;;;;;;;;;;;4993934;28;1113;-77
2022/03/11 15:46:09;;;;;;;;;;;;;;;;;;5011028;28;1122;-77
2022/03/11 15:48:35;;;;;;;;;;;;;;;;;;5011050;28;1079;-77
2022/03/11 15:51:01;;;;;;;;;;;;;;;;;;5010879;28;1348;-77
2022/03/11 15:53:29;;;;;;;;;;;;;;;;;;4993302;28;1299;-76
2022/03/11 15:55:55;;;;;;;;;;;;;;;;;;5010810;28;1119;-76
2022/03/11 15:58:21;;;;;;;;;;;;;;;;;;5010406;28;949;-75
2022/03/11 16:00:48;;;;;;;;;;;;;;;;;;4992816;28;1344;-76
2022/03/11 16:03:14;;;;;;;;;;;;;;;;;;5012082;28;893;-76
2022/03/11 16:05:41;;;;;;;;;;;;;;;;;;5014730;28;1142;-76
2022/03/11 16:08:07;;;;;;;;;;;;;;;;;;5013825;28;1110;-76
2022/03/11 16:10:34;;;;;;;;;;;;;;;;;;5014495;28;1290;-76
2022/03/11 16:13:01;;;;;;;;;;;;;;;;;;5014347;28;1070;-76
2022/03/11 16:15:27;;;;;;;;;;;;;;;;;;4996421;28;1139;-76
2022/03/11 16:17:54;;;;;;;;;;;;;;;;;;5013899;28;1981;-75
2022/03/11 16:20:20;;;;;;;;;;;;;;;;;;4996046;28;1419;-75
2022/03/11 16:22:46;;;;;;;;;;;;;;;;;;5013810;28;925;-75
2022/03/11 16:25:12;;;;;;;;;;;;;;;;;;5014021;28;1083;-74
2022/03/11 16:27:41;;;;;;;;;;;;;;;;;;5014110;28;1083;-76
2022/03/11 16:30:08;;;;;;;;;;;;;;;;;;5013748;28;1340;-75
2022/03/11 16:32:36;;;;;;;;;;;;;;;;;;4996035;28;1173;-75
2022/03/11 16:35:03;;;;;;;;;;;;;;;;;;5013610;28;937;-76
2022/03/11 16:37:29;;;;;;;;;;;;;;;;;;5013008;28;1983;-75
2022/03/11 16:39:55;;;;;;;;;;;;;;;;;;5013283;28;1340;-75
2022/03/11 16:42:22;;;;;;;;;;;;;;;;;;5013322;28;1082;-76
2022/03/11 16:44:49;;;;;;;;;;;;;;;;;;5013885;28;1166;-76
2022/03/11 16:47:15;;;;;;;;;;;;;;;;;;5013054;28;1126;-76
2022/03/11 16:49:42;;;;;;;;;;;;;;;;;;5013821;28;1404;-75
2022/03/11 16:52:09;;;;;;;;;;;;;;;;;;5013392;28;1075;-75
2022/03/11 16:54:35;;;;;;;;;;;;;;;;;;5013250;28;1075;-76
2022/03/11 16:57:01;;;;;;;;;;;;;;;;;;5012915;28;1902;-75
2022/03/11 16:59:28;;;;;;;;;;;;;;;;;;5013080;28;976;-76
2022/03/11 17:01:55;;;;;;;;;;;;;;;;;;5012824;28;1374;-76
2022/03/11 17:04:21;;;;;;;;;;;;;;;;;;4995508;28;1312;-76
2022/03/11 17:06:48;;;;;;;;;;;;;;;;;;5012776;28;724;-76